sensor_id;sensor_type;location;lat;lon;timestamp;P1;durP1;ratioP1;P2;durP2;ratioP2
68757;SDS011;55747;51.998;4.466;2023-02-11T00:01:41;23.10;;;4.03;;
68757;SDS011;55747;51.998;4.466;2023-02-11T00:04:06;23.67;;;4.70;;
68757;SDS011;55747;51.998;4.466;2023-02-11T00:06:32;22.17;;;4.40;;
68757;SDS011;55747;51.998;4.466;2023-02-11T00:08:59;19.50;;;4.22;;
68757;SDS011;55747;51.998;4.466;2023-02-11T00:11:25;25.25;;;4.88;;
68757;SDS011;55747;51.998;4.466;2023-02-11T00:13:56;20.50;;;3.88;;
68757;SDS011;55747;51.998;4.466;2023-02-11T00:18:52;31.48;;;4.38;;
68757;SDS011;55747;51.998;4.466;2023-02-11T00:21:22;37.60;;;4.85;;
68757;SDS011;55747;51.998;4.466;2023-02-11T00:23:49;20.77;;;4.68;;
68757;SDS011;55747;51.998;4.466;2023-02-11T00:26:21;21.58;;;4.30;;
68757;SDS011;55747;51.998;4.466;2023-02-11T00:29:05;31.40;;;5.32;;
68757;SDS011;55747;51.998;4.466;2023-02-11T00:31:30;23.58;;;4.15;;
68757;SDS011;55747;51.998;4.466;2023-02-11T00:33:55;20.98;;;4.65;;
68757;SDS011;55747;51.998;4.466;2023-02-11T00:36:22;26.42;;;4.20;;
68757;SDS011;55747;51.998;4.466;2023-02-11T00:38:48;23.58;;;4.25;;
68757;SDS011;55747;51.998;4.466;2023-02-11T00:41:16;19.67;;;4.00;;
68757;SDS011;55747;51.998;4.466;2023-02-11T00:43:42;25.05;;;4.68;;
68757;SDS011;55747;51.998;4.466;2023-02-11T00:46:08;28.15;;;5.25;;
68757;SDS011;55747;51.998;4.466;2023-02-11T00:48:34;20.30;;;3.75;;
68757;SDS011;55747;51.998;4.466;2023-02-11T00:51:00;29.35;;;4.65;;
68757;SDS011;55747;51.998;4.466;2023-02-11T00:53:28;19.60;;;4.13;;
68757;SDS011;55747;51.998;4.466;2023-02-11T00:55:54;30.10;;;4.80;;
68757;SDS011;55747;51.998;4.466;2023-02-11T00:58:20;28.30;;;4.13;;
68757;SDS011;55747;51.998;4.466;2023-02-11T01:00:46;23.77;;;4.00;;
68757;SDS011;55747;51.998;4.466;2023-02-11T01:03:12;22.50;;;3.85;;
68757;SDS011;55747;51.998;4.466;2023-02-11T01:05:37;21.95;;;4.82;;
68757;SDS011;55747;51.998;4.466;2023-02-11T01:08:02;21.83;;;3.75;;
68757;SDS011;55747;51.998;4.466;2023-02-11T01:10:28;24.83;;;5.32;;
68757;SDS011;55747;51.998;4.466;2023-02-11T01:12:53;24.08;;;4.60;;
68757;SDS011;55747;51.998;4.466;2023-02-11T01:15:19;21.92;;;4.38;;
68757;SDS011;55747;51.998;4.466;2023-02-11T01:17:45;23.30;;;3.97;;
68757;SDS011;55747;51.998;4.466;2023-02-11T01:20:14;22.92;;;4.65;;
68757;SDS011;55747;51.998;4.466;2023-02-11T01:22:45;26.90;;;4.72;;
68757;SDS011;55747;51.998;4.466;2023-02-11T01:25:10;22.83;;;5.03;;
68757;SDS011;55747;51.998;4.466;2023-02-11T01:27:36;28.42;;;5.00;;
68757;SDS011;55747;51.998;4.466;2023-02-11T01:30:02;22.50;;;4.38;;
68757;SDS011;55747;51.998;4.466;2023-02-11T01:32:30;21.30;;;4.30;;
68757;SDS011;55747;51.998;4.466;2023-02-11T01:34:58;25.73;;;4.38;;
68757;SDS011;55747;51.998;4.466;2023-02-11T01:37:24;20.10;;;4.13;;
68757;SDS011;55747;51.998;4.466;2023-02-11T01:39:49;28.70;;;4.82;;
68757;SDS011;55747;51.998;4.466;2023-02-11T01:42:15;20.40;;;5.10;;
68757;SDS011;55747;51.998;4.466;2023-02-11T01:44:43;21.77;;;4.70;;
68757;SDS011;55747;51.998;4.466;2023-02-11T01:47:08;27.88;;;5.03;;
68757;SDS011;55747;51.998;4.466;2023-02-11T01:49:55;16.55;;;4.65;;
68757;SDS011;55747;51.998;4.466;2023-02-11T01:52:36;26.83;;;5.30;;
68757;SDS011;55747;51.998;4.466;2023-02-11T01:55:08;28.35;;;5.57;;
68757;SDS011;55747;51.998;4.466;2023-02-11T01:57:55;29.08;;;5.22;;
68757;SDS011;55747;51.998;4.466;2023-02-11T02:00:34;19.10;;;5.10;;
68757;SDS011;55747;51.998;4.466;2023-02-11T02:03:15;22.15;;;5.47;;
68757;SDS011;55747;51.998;4.466;2023-02-11T02:05:45;34.63;;;5.55;;
68757;SDS011;55747;51.998;4.466;2023-02-11T02:10:59;28.50;;;5.68;;
68757;SDS011;55747;51.998;4.466;2023-02-11T02:13:25;22.90;;;4.95;;
68757;SDS011;55747;51.998;4.466;2023-02-11T02:15:56;27.27;;;6.05;;
68757;SDS011;55747;51.998;4.466;2023-02-11T02:35:09;23.03;;;6.03;;
68757;SDS011;55747;51.998;4.466;2023-02-11T02:37:46;29.63;;;6.15;;
68757;SDS011;55747;51.998;4.466;2023-02-11T02:40:24;24.05;;;6.20;;
68757;SDS011;55747;51.998;4.466;2023-02-11T02:42:55;20.05;;;5.75;;
68757;SDS011;55747;51.998;4.466;2023-02-11T02:45:22;26.98;;;6.90;;
68757;SDS011;55747;51.998;4.466;2023-02-11T02:47:48;28.88;;;6.30;;
68757;SDS011;55747;51.998;4.466;2023-02-11T02:50:13;26.67;;;6.43;;
68757;SDS011;55747;51.998;4.466;2023-02-11T02:52:50;29.40;;;6.32;;
68757;SDS011;55747;51.998;4.466;2023-02-11T02:55:55;30.38;;;6.85;;
68757;SDS011;55747;51.998;4.466;2023-02-11T02:58:39;27.83;;;6.73;;
68757;SDS011;55747;51.998;4.466;2023-02-11T03:04:27;29.10;;;7.28;;
68757;SDS011;55747;51.998;4.466;2023-02-11T03:07:05;28.23;;;7.35;;
68757;SDS011;55747;51.998;4.466;2023-02-11T03:09:48;32.38;;;7.35;;
68757;SDS011;55747;51.998;4.466;2023-02-11T03:12:19;29.23;;;7.32;;
68757;SDS011;55747;51.998;4.466;2023-02-11T03:14:47;29.98;;;8.38;;
68757;SDS011;55747;51.998;4.466;2023-02-11T03:17:15;37.35;;;8.43;;
68757;SDS011;55747;51.998;4.466;2023-02-11T03:19:45;29.55;;;8.00;;
68757;SDS011;55747;51.998;4.466;2023-02-11T03:22:14;29.77;;;7.45;;
68757;SDS011;55747;51.998;4.466;2023-02-11T03:24:43;31.27;;;8.00;;
68757;SDS011;55747;51.998;4.466;2023-02-11T03:30:03;29.98;;;7.72;;
68757;SDS011;55747;51.998;4.466;2023-02-11T03:32:36;38.25;;;8.55;;
68757;SDS011;55747;51.998;4.466;2023-02-11T03:35:11;31.98;;;8.38;;
68757;SDS011;55747;51.998;4.466;2023-02-11T03:37:42;44.13;;;8.85;;
68757;SDS011;55747;51.998;4.466;2023-02-11T03:40:14;32.33;;;8.15;;
68757;SDS011;55747;51.998;4.466;2023-02-11T03:42:45;34.08;;;8.30;;
68757;SDS011;55747;51.998;4.466;2023-02-11T03:45:23;29.17;;;8.18;;
68757;SDS011;55747;51.998;4.466;2023-02-11T03:47:53;32.35;;;8.95;;
68757;SDS011;55747;51.998;4.466;2023-02-11T03:50:22;44.22;;;9.50;;
68757;SDS011;55747;51.998;4.466;2023-02-11T03:52:52;34.63;;;9.00;;
68757;SDS011;55747;51.998;4.466;2023-02-11T03:55:20;28.80;;;8.50;;
68757;SDS011;55747;51.998;4.466;2023-02-11T03:57:49;29.20;;;8.43;;
68757;SDS011;55747;51.998;4.466;2023-02-11T04:00:15;37.40;;;9.02;;
68757;SDS011;55747;51.998;4.466;2023-02-11T04:02:41;35.70;;;9.02;;
68757;SDS011;55747;51.998;4.466;2023-02-11T04:05:08;32.67;;;9.25;;
68757;SDS011;55747;51.998;4.466;2023-02-11T04:07:35;26.83;;;8.27;;
68757;SDS011;55747;51.998;4.466;2023-02-11T04:10:00;33.50;;;9.70;;
68757;SDS011;55747;51.998;4.466;2023-02-11T04:12:25;34.58;;;8.75;;
68757;SDS011;55747;51.998;4.466;2023-02-11T04:14:51;46.38;;;10.23;;
68757;SDS011;55747;51.998;4.466;2023-02-11T04:17:16;42.17;;;10.30;;
68757;SDS011;55747;51.998;4.466;2023-02-11T04:19:42;40.00;;;9.95;;
68757;SDS011;55747;51.998;4.466;2023-02-11T04:22:07;40.65;;;10.40;;
68757;SDS011;55747;51.998;4.466;2023-02-11T04:24:33;46.78;;;11.75;;
68757;SDS011;55747;51.998;4.466;2023-02-11T04:26:59;37.30;;;10.18;;
68757;SDS011;55747;51.998;4.466;2023-02-11T04:29:24;39.05;;;11.75;;
68757;SDS011;55747;51.998;4.466;2023-02-11T04:31:49;36.13;;;11.60;;
68757;SDS011;55747;51.998;4.466;2023-02-11T04:34:15;43.85;;;11.27;;
68757;SDS011;55747;51.998;4.466;2023-02-11T04:36:41;41.60;;;11.43;;
68757;SDS011;55747;51.998;4.466;2023-02-11T04:39:06;39.38;;;13.15;;
68757;SDS011;55747;51.998;4.466;2023-02-11T04:41:32;43.85;;;12.48;;
68757;SDS011;55747;51.998;4.466;2023-02-11T04:43:57;40.47;;;12.50;;
68757;SDS011;55747;51.998;4.466;2023-02-11T04:46:29;46.75;;;12.32;;
68757;SDS011;55747;51.998;4.466;2023-02-11T04:48:55;47.95;;;12.93;;
68757;SDS011;55747;51.998;4.466;2023-02-11T04:51:24;47.50;;;13.32;;
68757;SDS011;55747;51.998;4.466;2023-02-11T04:54:18;51.17;;;13.23;;
68757;SDS011;55747;51.998;4.466;2023-02-11T04:56:46;46.85;;;13.90;;
68757;SDS011;55747;51.998;4.466;2023-02-11T04:59:14;51.63;;;14.85;;
68757;SDS011;55747;51.998;4.466;2023-02-11T05:01:50;52.28;;;15.57;;
68757;SDS011;55747;51.998;4.466;2023-02-11T05:04:19;51.63;;;15.63;;
68757;SDS011;55747;51.998;4.466;2023-02-11T05:06:47;56.13;;;17.15;;
68757;SDS011;55747;51.998;4.466;2023-02-11T05:09:12;58.47;;;17.88;;
68757;SDS011;55747;51.998;4.466;2023-02-11T05:11:40;61.38;;;19.13;;
68757;SDS011;55747;51.998;4.466;2023-02-11T05:14:25;60.85;;;18.08;;
68757;SDS011;55747;51.998;4.466;2023-02-11T05:16:54;76.82;;;20.58;;
68757;SDS011;55747;51.998;4.466;2023-02-11T05:19:21;69.35;;;21.25;;
68757;SDS011;55747;51.998;4.466;2023-02-11T05:21:56;64.05;;;20.27;;
68757;SDS011;55747;51.998;4.466;2023-02-11T05:24:45;77.45;;;21.33;;
68757;SDS011;55747;51.998;4.466;2023-02-11T05:27:14;68.70;;;20.08;;
68757;SDS011;55747;51.998;4.466;2023-02-11T05:29:39;70.43;;;20.90;;
68757;SDS011;55747;51.998;4.466;2023-02-11T05:32:10;63.47;;;20.30;;
68757;SDS011;55747;51.998;4.466;2023-02-11T05:34:36;66.05;;;20.95;;
68757;SDS011;55747;51.998;4.466;2023-02-11T05:37:04;65.78;;;19.85;;
68757;SDS011;55747;51.998;4.466;2023-02-11T05:39:38;71.63;;;20.10;;
68757;SDS011;55747;51.998;4.466;2023-02-11T05:42:04;77.72;;;20.48;;
68757;SDS011;55747;51.998;4.466;2023-02-11T05:44:29;60.92;;;19.02;;
68757;SDS011;55747;51.998;4.466;2023-02-11T05:46:57;73.82;;;20.83;;
68757;SDS011;55747;51.998;4.466;2023-02-11T05:49:23;66.85;;;19.88;;
68757;SDS011;55747;51.998;4.466;2023-02-11T05:52:15;73.97;;;21.98;;
68757;SDS011;55747;51.998;4.466;2023-02-11T05:54:46;74.22;;;20.13;;
68757;SDS011;55747;51.998;4.466;2023-02-11T05:57:11;66.18;;;20.63;;
68757;SDS011;55747;51.998;4.466;2023-02-11T05:59:53;70.15;;;21.02;;
68757;SDS011;55747;51.998;4.466;2023-02-11T06:02:33;66.85;;;21.52;;
68757;SDS011;55747;51.998;4.466;2023-02-11T06:04:59;75.03;;;22.83;;
68757;SDS011;55747;51.998;4.466;2023-02-11T06:07:29;69.30;;;22.52;;
68757;SDS011;55747;51.998;4.466;2023-02-11T06:09:58;71.97;;;23.52;;
68757;SDS011;55747;51.998;4.466;2023-02-11T06:12:23;70.70;;;23.65;;
68757;SDS011;55747;51.998;4.466;2023-02-11T06:14:49;72.15;;;22.40;;
68757;SDS011;55747;51.998;4.466;2023-02-11T06:17:22;72.30;;;22.77;;
68757;SDS011;55747;51.998;4.466;2023-02-11T06:20:11;77.22;;;23.08;;
68757;SDS011;55747;51.998;4.466;2023-02-11T06:22:45;73.47;;;23.88;;
68757;SDS011;55747;51.998;4.466;2023-02-11T06:25:24;71.18;;;23.73;;
68757;SDS011;55747;51.998;4.466;2023-02-11T06:33:34;82.28;;;25.95;;
68757;SDS011;55747;51.998;4.466;2023-02-11T06:36:22;98.50;;;27.85;;
68757;SDS011;55747;51.998;4.466;2023-02-11T06:38:50;90.65;;;28.13;;
68757;SDS011;55747;51.998;4.466;2023-02-11T06:44:12;88.00;;;27.20;;
68757;SDS011;55747;51.998;4.466;2023-02-11T06:47:09;94.25;;;28.08;;
68757;SDS011;55747;51.998;4.466;2023-02-11T06:53:29;87.82;;;26.80;;
68757;SDS011;55747;51.998;4.466;2023-02-11T06:56:41;88.35;;;29.27;;
68757;SDS011;55747;51.998;4.466;2023-02-11T06:59:18;95.60;;;26.85;;
68757;SDS011;55747;51.998;4.466;2023-02-11T07:11:52;95.63;;;28.88;;
68757;SDS011;55747;51.998;4.466;2023-02-11T07:17:17;106.22;;;30.45;;
68757;SDS011;55747;51.998;4.466;2023-02-11T07:27:18;97.47;;;29.88;;
68757;SDS011;55747;51.998;4.466;2023-02-11T07:29:48;101.78;;;29.50;;
68757;SDS011;55747;51.998;4.466;2023-02-11T07:32:19;96.68;;;29.73;;
68757;SDS011;55747;51.998;4.466;2023-02-11T07:34:57;93.40;;;29.92;;
68757;SDS011;55747;51.998;4.466;2023-02-11T10:46:40;22.02;;;11.57;;
68757;SDS011;55747;51.998;4.466;2023-02-11T10:49:09;19.40;;;12.02;;
68757;SDS011;55747;51.998;4.466;2023-02-11T10:52:40;19.38;;;12.32;;
68757;SDS011;55747;51.998;4.466;2023-02-11T12:05:47;26.33;;;11.85;;
68757;SDS011;55747;51.998;4.466;2023-02-11T12:27:55;20.80;;;11.18;;
68757;SDS011;55747;51.998;4.466;2023-02-11T12:34:57;18.58;;;10.60;;
68757;SDS011;55747;51.998;4.466;2023-02-11T13:04:47;12.85;;;8.13;;
68757;SDS011;55747;51.998;4.466;2023-02-11T13:14:58;12.63;;;7.63;;
68757;SDS011;55747;51.998;4.466;2023-02-11T13:24:40;13.32;;;6.93;;
68757;SDS011;55747;51.998;4.466;2023-02-11T13:37:49;13.63;;;6.70;;
68757;SDS011;55747;51.998;4.466;2023-02-11T13:44:24;10.38;;;6.32;;
68757;SDS011;55747;51.998;4.466;2023-02-11T13:47:06;9.85;;;5.85;;
68757;SDS011;55747;51.998;4.466;2023-02-11T13:50:44;10.23;;;6.22;;
68757;SDS011;55747;51.998;4.466;2023-02-11T14:25:02;7.82;;;5.30;;
68757;SDS011;55747;51.998;4.466;2023-02-11T14:42:11;11.60;;;5.93;;
68757;SDS011;55747;51.998;4.466;2023-02-11T15:39:37;13.45;;;5.32;;
68757;SDS011;55747;51.998;4.466;2023-02-11T15:58:10;10.73;;;5.40;;
68757;SDS011;55747;51.998;4.466;2023-02-11T16:01:08;10.70;;;5.78;;
68757;SDS011;55747;51.998;4.466;2023-02-11T16:04:12;12.70;;;5.47;;
68757;SDS011;55747;51.998;4.466;2023-02-11T16:13:31;11.45;;;5.40;;
68757;SDS011;55747;51.998;4.466;2023-02-11T16:16:39;11.73;;;5.28;;
68757;SDS011;55747;51.998;4.466;2023-02-11T16:19:21;8.85;;;5.38;;
68757;SDS011;55747;51.998;4.466;2023-02-11T16:21:58;8.77;;;5.35;;
68757;SDS011;55747;51.998;4.466;2023-02-11T16:28:11;11.95;;;6.47;;
68757;SDS011;55747;51.998;4.466;2023-02-11T16:30:47;8.90;;;5.82;;
68757;SDS011;55747;51.998;4.466;2023-02-11T16:33:41;9.57;;;5.50;;
68757;SDS011;55747;51.998;4.466;2023-02-11T16:36:13;11.63;;;6.10;;
68757;SDS011;55747;51.998;4.466;2023-02-11T16:39:00;9.45;;;5.97;;
68757;SDS011;55747;51.998;4.466;2023-02-11T16:44:35;9.07;;;6.00;;
68757;SDS011;55747;51.998;4.466;2023-02-11T16:50:53;10.30;;;6.38;;
68757;SDS011;55747;51.998;4.466;2023-02-11T16:53:42;13.07;;;6.78;;
68757;SDS011;55747;51.998;4.466;2023-02-11T17:02:49;13.15;;;6.60;;
68757;SDS011;55747;51.998;4.466;2023-02-11T17:05:53;12.57;;;6.85;;
68757;SDS011;55747;51.998;4.466;2023-02-11T18:01:58;15.48;;;7.32;;
68757;SDS011;55747;51.998;4.466;2023-02-11T18:05:19;11.93;;;7.35;;
68757;SDS011;55747;51.998;4.466;2023-02-11T18:15:22;13.05;;;8.07;;
68757;SDS011;55747;51.998;4.466;2023-02-11T18:18:26;13.63;;;7.60;;
68757;SDS011;55747;51.998;4.466;2023-02-11T18:21:33;13.32;;;7.65;;
68757;SDS011;55747;51.998;4.466;2023-02-11T19:14:10;15.55;;;9.60;;
68757;SDS011;55747;51.998;4.466;2023-02-11T19:38:51;14.63;;;9.20;;
68757;SDS011;55747;51.998;4.466;2023-02-11T19:41:42;15.80;;;9.00;;
68757;SDS011;55747;51.998;4.466;2023-02-11T19:44:33;18.73;;;9.43;;
68757;SDS011;55747;51.998;4.466;2023-02-11T20:01:13;16.80;;;8.20;;
68757;SDS011;55747;51.998;4.466;2023-02-11T20:03:52;17.83;;;8.85;;
68757;SDS011;55747;51.998;4.466;2023-02-11T20:06:30;15.90;;;8.68;;
68757;SDS011;55747;51.998;4.466;2023-02-11T20:09:07;16.42;;;8.50;;
68757;SDS011;55747;51.998;4.466;2023-02-11T20:11:57;16.50;;;8.68;;
68757;SDS011;55747;51.998;4.466;2023-02-11T20:14:31;18.85;;;9.05;;
68757;SDS011;55747;51.998;4.466;2023-02-11T20:19:48;17.95;;;8.88;;
68757;SDS011;55747;51.998;4.466;2023-02-11T20:22:33;13.63;;;8.77;;
68757;SDS011;55747;51.998;4.466;2023-02-11T20:26:02;15.98;;;7.93;;
68757;SDS011;55747;51.998;4.466;2023-02-11T20:32:10;13.48;;;8.30;;
68757;SDS011;55747;51.998;4.466;2023-02-11T20:37:50;13.25;;;8.57;;
68757;SDS011;55747;51.998;4.466;2023-02-11T20:41:11;11.38;;;8.20;;
68757;SDS011;55747;51.998;4.466;2023-02-11T20:44:47;12.68;;;7.85;;
68757;SDS011;55747;51.998;4.466;2023-02-11T20:47:48;19.17;;;8.60;;
68757;SDS011;55747;51.998;4.466;2023-02-11T20:50:22;14.60;;;8.25;;
68757;SDS011;55747;51.998;4.466;2023-02-11T21:02:14;13.98;;;8.07;;
68757;SDS011;55747;51.998;4.466;2023-02-11T21:05:27;14.80;;;8.55;;
68757;SDS011;55747;51.998;4.466;2023-02-11T21:07:53;16.02;;;8.80;;
68757;SDS011;55747;51.998;4.466;2023-02-11T21:10:21;12.60;;;8.82;;
68757;SDS011;55747;51.998;4.466;2023-02-11T21:12:52;17.92;;;9.45;;
68757;SDS011;55747;51.998;4.466;2023-02-11T21:15:27;15.25;;;8.95;;
68757;SDS011;55747;51.998;4.466;2023-02-11T21:18:10;17.50;;;9.07;;
68757;SDS011;55747;51.998;4.466;2023-02-11T21:20:47;13.32;;;8.63;;
68757;SDS011;55747;51.998;4.466;2023-02-11T21:23:12;17.42;;;9.60;;
68757;SDS011;55747;51.998;4.466;2023-02-11T21:25:59;17.60;;;9.98;;
68757;SDS011;55747;51.998;4.466;2023-02-11T21:28:43;16.35;;;10.07;;
68757;SDS011;55747;51.998;4.466;2023-02-11T21:31:12;16.67;;;10.00;;
68757;SDS011;55747;51.998;4.466;2023-02-11T21:33:49;18.17;;;10.65;;
68757;SDS011;55747;51.998;4.466;2023-02-11T21:36:15;22.33;;;11.43;;
68757;SDS011;55747;51.998;4.466;2023-02-11T21:38:59;20.10;;;11.43;;
68757;SDS011;55747;51.998;4.466;2023-02-11T21:41:59;18.45;;;10.38;;
68757;SDS011;55747;51.998;4.466;2023-02-11T21:44:36;15.68;;;10.10;;
68757;SDS011;55747;51.998;4.466;2023-02-11T21:49:56;16.55;;;9.55;;
68757;SDS011;55747;51.998;4.466;2023-02-11T21:52:24;18.90;;;10.80;;
68757;SDS011;55747;51.998;4.466;2023-02-11T21:54:52;20.10;;;11.27;;
68757;SDS011;55747;51.998;4.466;2023-02-11T21:57:18;17.65;;;10.25;;
68757;SDS011;55747;51.998;4.466;2023-02-11T21:59:59;19.00;;;11.35;;
68757;SDS011;55747;51.998;4.466;2023-02-11T22:05:28;19.55;;;10.88;;
68757;SDS011;55747;51.998;4.466;2023-02-11T22:08:23;23.58;;;11.05;;
68757;SDS011;55747;51.998;4.466;2023-02-11T22:10:49;19.83;;;10.48;;
68757;SDS011;55747;51.998;4.466;2023-02-11T22:13:17;17.75;;;10.75;;
68757;SDS011;55747;51.998;4.466;2023-02-11T22:15:42;16.05;;;10.20;;
68757;SDS011;55747;51.998;4.466;2023-02-11T22:18:10;19.23;;;10.70;;
68757;SDS011;55747;51.998;4.466;2023-02-11T22:20:35;21.92;;;11.10;;
68757;SDS011;55747;51.998;4.466;2023-02-11T22:23:06;22.30;;;11.27;;
68757;SDS011;55747;51.998;4.466;2023-02-11T22:25:35;18.63;;;11.15;;
68757;SDS011;55747;51.998;4.466;2023-02-11T22:28:02;19.50;;;10.73;;
68757;SDS011;55747;51.998;4.466;2023-02-11T22:30:27;17.20;;;10.55;;
68757;SDS011;55747;51.998;4.466;2023-02-11T22:32:53;17.58;;;11.45;;
68757;SDS011;55747;51.998;4.466;2023-02-11T22:35:23;19.77;;;10.90;;
68757;SDS011;55747;51.998;4.466;2023-02-11T22:37:49;20.15;;;11.02;;
68757;SDS011;55747;51.998;4.466;2023-02-11T22:40:17;17.83;;;11.35;;
68757;SDS011;55747;51.998;4.466;2023-02-11T22:42:43;20.80;;;12.27;;
68757;SDS011;55747;51.998;4.466;2023-02-11T22:45:08;23.25;;;12.65;;
68757;SDS011;55747;51.998;4.466;2023-02-11T22:47:33;19.13;;;12.00;;
68757;SDS011;55747;51.998;4.466;2023-02-11T22:50:00;20.10;;;12.55;;
68757;SDS011;55747;51.998;4.466;2023-02-11T22:52:25;23.85;;;12.27;;
68757;SDS011;55747;51.998;4.466;2023-02-11T22:54:52;17.55;;;12.25;;
68757;SDS011;55747;51.998;4.466;2023-02-11T22:57:18;19.58;;;12.90;;
68757;SDS011;55747;51.998;4.466;2023-02-11T22:59:44;22.90;;;12.07;;
68757;SDS011;55747;51.998;4.466;2023-02-11T23:02:09;21.85;;;11.65;;
68757;SDS011;55747;51.998;4.466;2023-02-11T23:04:38;21.45;;;12.35;;
68757;SDS011;55747;51.998;4.466;2023-02-11T23:07:03;19.17;;;12.05;;
68757;SDS011;55747;51.998;4.466;2023-02-11T23:09:28;22.08;;;12.20;;
68757;SDS011;55747;51.998;4.466;2023-02-11T23:11:54;20.05;;;11.90;;
68757;SDS011;55747;51.998;4.466;2023-02-11T23:14:19;23.33;;;11.90;;
68757;SDS011;55747;51.998;4.466;2023-02-11T23:16:45;20.15;;;12.43;;
68757;SDS011;55747;51.998;4.466;2023-02-11T23:19:14;18.40;;;11.73;;
68757;SDS011;55747;51.998;4.466;2023-02-11T23:21:41;18.83;;;12.00;;
68757;SDS011;55747;51.998;4.466;2023-02-11T23:24:07;22.27;;;12.38;;
68757;SDS011;55747;51.998;4.466;2023-02-11T23:26:37;21.08;;;12.32;;
68757;SDS011;55747;51.998;4.466;2023-02-11T23:29:03;20.73;;;12.20;;
68757;SDS011;55747;51.998;4.466;2023-02-11T23:31:33;21.40;;;12.00;;
68757;SDS011;55747;51.998;4.466;2023-02-11T23:34:01;22.85;;;11.48;;
68757;SDS011;55747;51.998;4.466;2023-02-11T23:36:27;22.77;;;11.95;;
68757;SDS011;55747;51.998;4.466;2023-02-11T23:38:53;19.90;;;12.20;;
68757;SDS011;55747;51.998;4.466;2023-02-11T23:41:18;18.95;;;11.60;;
68757;SDS011;55747;51.998;4.466;2023-02-11T23:43:47;18.85;;;11.88;;
68757;SDS011;55747;51.998;4.466;2023-02-11T23:46:17;23.02;;;11.85;;
68757;SDS011;55747;51.998;4.466;2023-02-11T23:48:43;22.23;;;12.35;;
68757;SDS011;55747;51.998;4.466;2023-02-11T23:51:09;19.42;;;11.90;;
68757;SDS011;55747;51.998;4.466;2023-02-11T23:53:37;20.90;;;11.73;;
68757;SDS011;55747;51.998;4.466;2023-02-11T23:56:06;18.58;;;11.52;;
68757;SDS011;55747;51.998;4.466;2023-02-11T23:58:34;18.77;;;11.02;;
